<?xml version="1.0" encoding="UTF-8" standalone="no" ?>
<gpx xmlns="http://www.topografix.com/GPX/1/1" xmlns:xsi="http://www.w3.org/2001/XMLSchema-instance" xsi:schemaLocation="http://www.topografix.com/GPX/1/1 http://www.topografix.com/GPX/1/1/gpx.xsd" version="1.1" creator="VisuGPX - https://www.visugpx.com">
  <metadata>
    <name>StAndreEaux_Autour_8-21km</name>
    <desc><![CDATA[gnerando idor:7129608_7129617_7129633_9104519_]]></desc>
  </metadata>
  <trk>
    <name><![CDATA[StAndréEaux_Gascieux_8.3km-7129608]]></name>
    <extensions>
      <line xmlns="http://www.topografix.com/GPX/gpx_style/0/2">
        <color>00FF00</color>
        <width>4</width>
      </line>
    </extensions>
    <trkseg>
      <trkpt lat="47.31422" lon="-2.31124">
        <ele>20</ele>
        <time>2023-11-12T07:01:01Z</time>
      </trkpt>
      <trkpt lat="47.31382" lon="-2.3117">
        <ele>21</ele>
        <time>2023-11-12T07:02:09Z</time>
      </trkpt>
      <trkpt lat="47.31399" lon="-2.3123">
        <ele>22</ele>
        <time>2023-11-12T07:03:08Z</time>
      </trkpt>
      <trkpt lat="47.31318" lon="-2.31322">
        <ele>21</ele>
        <time>2023-11-12T07:05:24Z</time>
      </trkpt>
      <trkpt lat="47.31382" lon="-2.31352">
        <ele>21</ele>
        <time>2023-11-12T07:06:54Z</time>
      </trkpt>
      <trkpt lat="47.31421" lon="-2.31468">
        <ele>23</ele>
        <time>2023-11-12T07:08:51Z</time>
      </trkpt>
      <trkpt lat="47.31463" lon="-2.31777">
        <ele>24</ele>
        <time>2023-11-12T07:13:36Z</time>
      </trkpt>
      <trkpt lat="47.31439" lon="-2.31888">
        <ele>25</ele>
        <time>2023-11-12T07:15:21Z</time>
      </trkpt>
      <trkpt lat="47.31434" lon="-2.31981">
        <ele>24</ele>
        <time>2023-11-12T07:16:46Z</time>
      </trkpt>
      <trkpt lat="47.31526" lon="-2.32195">
        <ele>27</ele>
        <time>2023-11-12T07:20:35Z</time>
      </trkpt>
      <trkpt lat="47.31455" lon="-2.32277">
        <ele>25</ele>
        <time>2023-11-12T07:22:35Z</time>
      </trkpt>
      <trkpt lat="47.31348" lon="-2.32318">
        <ele>23</ele>
        <time>2023-11-12T07:25:03Z</time>
      </trkpt>
      <trkpt lat="47.31268" lon="-2.32395">
        <ele>23</ele>
        <time>2023-11-12T07:27:10Z</time>
      </trkpt>
      <trkpt lat="47.31181" lon="-2.32455">
        <ele>25</ele>
        <time>2023-11-12T07:29:18Z</time>
      </trkpt>
      <trkpt lat="47.31177" lon="-2.32616">
        <ele>27</ele>
        <time>2023-11-12T07:31:44Z</time>
      </trkpt>
      <trkpt lat="47.31207" lon="-2.32727">
        <ele>29</ele>
        <time>2023-11-12T07:33:32Z</time>
      </trkpt>
      <trkpt lat="47.31277" lon="-2.32779">
        <ele>27</ele>
        <time>2023-11-12T07:35:17Z</time>
      </trkpt>
      <trkpt lat="47.31353" lon="-2.32901">
        <ele>26</ele>
        <time>2023-11-12T07:37:47Z</time>
      </trkpt>
      <trkpt lat="47.31239" lon="-2.33144">
        <ele>31</ele>
        <time>2023-11-12T07:42:14Z</time>
      </trkpt>
      <trkpt lat="47.31431" lon="-2.33294">
        <ele>30</ele>
        <time>2023-11-12T07:47:04Z</time>
      </trkpt>
      <trkpt lat="47.31484" lon="-2.33373">
        <ele>31</ele>
        <time>2023-11-12T07:48:45Z</time>
      </trkpt>
      <trkpt lat="47.31732" lon="-2.33249">
        <ele>27</ele>
        <time>2023-11-12T07:54:34Z</time>
      </trkpt>
      <trkpt lat="47.31762" lon="-2.3333">
        <ele>27</ele>
        <time>2023-11-12T07:55:58Z</time>
      </trkpt>
      <trkpt lat="47.31858" lon="-2.33272">
        <ele>22</ele>
        <time>2023-11-12T07:58:16Z</time>
      </trkpt>
      <trkpt lat="47.31881" lon="-2.33212">
        <ele>20</ele>
        <time>2023-11-12T07:59:18Z</time>
      </trkpt>
      <trkpt lat="47.31882" lon="-2.32796">
        <ele>16</ele>
        <time>2023-11-12T08:05:35Z</time>
      </trkpt>
      <trkpt lat="47.31789" lon="-2.32425">
        <ele>24</ele>
        <time>2023-11-12T08:11:33Z</time>
      </trkpt>
      <trkpt lat="47.31914" lon="-2.32431">
        <ele>16</ele>
        <time>2023-11-12T08:14:19Z</time>
      </trkpt>
      <trkpt lat="47.3193" lon="-2.32476">
        <ele>14</ele>
        <time>2023-11-12T08:15:05Z</time>
      </trkpt>
      <trkpt lat="47.31961" lon="-2.32275">
        <ele>13</ele>
        <time>2023-11-12T08:18:12Z</time>
      </trkpt>
      <trkpt lat="47.32051" lon="-2.32202">
        <ele>9</ele>
        <time>2023-11-12T08:20:29Z</time>
      </trkpt>
      <trkpt lat="47.32201" lon="-2.32122">
        <ele>8</ele>
        <time>2023-11-12T08:24:02Z</time>
      </trkpt>
      <trkpt lat="47.32354" lon="-2.32105">
        <ele>9</ele>
        <time>2023-11-12T08:27:27Z</time>
      </trkpt>
      <trkpt lat="47.32505" lon="-2.32101">
        <ele>9</ele>
        <time>2023-11-12T08:30:48Z</time>
      </trkpt>
      <trkpt lat="47.32518" lon="-2.31835">
        <ele>10</ele>
        <time>2023-11-12T08:34:49Z</time>
      </trkpt>
      <trkpt lat="47.32506" lon="-2.31652">
        <ele>11</ele>
        <time>2023-11-12T08:37:36Z</time>
      </trkpt>
      <trkpt lat="47.3256" lon="-2.31594">
        <ele>10</ele>
        <time>2023-11-12T08:39:05Z</time>
      </trkpt>
      <trkpt lat="47.32554" lon="-2.31348">
        <ele>9</ele>
        <time>2023-11-12T08:42:47Z</time>
      </trkpt>
      <trkpt lat="47.32575" lon="-2.31213">
        <ele>10</ele>
        <time>2023-11-12T08:44:53Z</time>
      </trkpt>
      <trkpt lat="47.32567" lon="-2.30908">
        <ele>13</ele>
        <time>2023-11-12T08:49:29Z</time>
      </trkpt>
      <trkpt lat="47.32557" lon="-2.30736">
        <ele>11</ele>
        <time>2023-11-12T08:52:05Z</time>
      </trkpt>
      <trkpt lat="47.325" lon="-2.30427">
        <ele>12</ele>
        <time>2023-11-12T08:56:55Z</time>
      </trkpt>
      <trkpt lat="47.32543" lon="-2.30397">
        <ele>12</ele>
        <time>2023-11-12T08:57:58Z</time>
      </trkpt>
      <trkpt lat="47.32439" lon="-2.29867">
        <ele>16</ele>
        <time>2023-11-12T09:06:17Z</time>
      </trkpt>
      <trkpt lat="47.32381" lon="-2.29912">
        <ele>14</ele>
        <time>2023-11-12T09:07:45Z</time>
      </trkpt>
      <trkpt lat="47.32252" lon="-2.29665">
        <ele>9</ele>
        <time>2023-11-12T09:12:27Z</time>
      </trkpt>
      <trkpt lat="47.32137" lon="-2.29781">
        <ele>9</ele>
        <time>2023-11-12T09:15:33Z</time>
      </trkpt>
      <trkpt lat="47.32156" lon="-2.29848">
        <ele>9</ele>
        <time>2023-11-12T09:16:38Z</time>
      </trkpt>
      <trkpt lat="47.3206" lon="-2.29899">
        <ele>11</ele>
        <time>2023-11-12T09:18:54Z</time>
      </trkpt>
      <trkpt lat="47.32002" lon="-2.30052">
        <ele>11</ele>
        <time>2023-11-12T09:21:33Z</time>
      </trkpt>
      <trkpt lat="47.31962" lon="-2.30195">
        <ele>12</ele>
        <time>2023-11-12T09:23:53Z</time>
      </trkpt>
      <trkpt lat="47.31892" lon="-2.30294">
        <ele>13</ele>
        <time>2023-11-12T09:26:02Z</time>
      </trkpt>
      <trkpt lat="47.31796" lon="-2.30328">
        <ele>14</ele>
        <time>2023-11-12T09:28:14Z</time>
      </trkpt>
      <trkpt lat="47.31738" lon="-2.30412">
        <ele>14</ele>
        <time>2023-11-12T09:30:03Z</time>
      </trkpt>
      <trkpt lat="47.31789" lon="-2.30517">
        <ele>16</ele>
        <time>2023-11-12T09:31:59Z</time>
      </trkpt>
      <trkpt lat="47.31722" lon="-2.30565">
        <ele>16</ele>
        <time>2023-11-12T09:33:39Z</time>
      </trkpt>
      <trkpt lat="47.31716" lon="-2.30646">
        <ele>17</ele>
        <time>2023-11-12T09:34:53Z</time>
      </trkpt>
      <trkpt lat="47.31609" lon="-2.3073">
        <ele>16</ele>
        <time>2023-11-12T09:37:34Z</time>
      </trkpt>
      <trkpt lat="47.31533" lon="-2.30835">
        <ele>17</ele>
        <time>2023-11-12T09:39:53Z</time>
      </trkpt>
      <trkpt lat="47.3154" lon="-2.30878">
        <ele>18</ele>
        <time>2023-11-12T09:40:33Z</time>
      </trkpt>
      <trkpt lat="47.31474" lon="-2.31028">
        <ele>19</ele>
        <time>2023-11-12T09:43:15Z</time>
      </trkpt>
      <trkpt lat="47.31503" lon="-2.31112">
        <ele>19</ele>
        <time>2023-11-12T09:44:40Z</time>
      </trkpt>
      <trkpt lat="47.31423" lon="-2.31125">
        <ele>20</ele>
        <time>2023-11-12T09:46:28Z</time>
      </trkpt>
    </trkseg>
  </trk>
</gpx>